Time;durP1;ratioP1;P1;durP2;ratioP2;P2;SDS_P1;SDS_P2;PMS_P1;PMS_P2;Temp;Humidity;BMP_temperature;BMP_pressure;BME280_temperature;BME280_humidity;BME280_pressure;Samples;Min_cycle;Max_cycle;Signal;HPM_P1;HPM_P2
2023/11/13 00:02:07;;;;;;;2.83;1.63;;;;;;;5.80;82.77;100452.78;5011196;28;20295;-69
2023/11/13 00:04:35;;;;;;;3.57;1.90;;;;;;;5.78;83.45;100462.78;5029737;28;20251;-69
2023/11/13 00:07:01;;;;;;;2.17;1.80;;;;;;;5.75;82.51;100458.13;5030789;28;20212;-67
2023/11/13 00:09:28;;;;;;;4.20;2.13;;;;;;;5.73;82.05;100454.25;5030926;28;20208;-68
2023/11/13 00:11:54;;;;;;;3.60;1.90;;;;;;;5.70;82.46;100466.09;5035012;28;20203;-70
2023/11/13 00:14:20;;;;;;;2.37;1.87;;;;;;;5.67;82.28;100469.31;5029610;28;20239;-70
2023/11/13 00:16:47;;;;;;;4.03;2.10;;;;;;;5.65;82.31;100474.06;5032620;28;20855;-68
2023/11/13 00:19:13;;;;;;;3.07;1.80;;;;;;;5.65;81.15;100465.44;5034693;28;20230;-69
2023/11/13 00:21:41;;;;;;;2.80;1.63;;;;;;;5.64;80.92;100471.75;5031342;28;20277;-70
2023/11/13 00:24:08;;;;;;;3.60;2.00;;;;;;;5.65;81.36;100489.78;5030975;28;20234;-69
2023/11/13 00:26:34;;;;;;;2.90;2.07;;;;;;;5.66;80.97;100490.56;5030038;28;20207;-70
2023/11/13 00:29:01;;;;;;;2.77;2.27;;;;;;;5.68;82.25;100491.81;5030873;28;20639;-70
2023/11/13 00:31:28;;;;;;;3.47;1.73;;;;;;;5.68;80.16;100489.19;5033157;28;20258;-70
2023/11/13 00:33:55;;;;;;;4.03;2.17;;;;;;;5.71;80.97;100498.31;5034741;28;20220;-71
2023/11/13 00:36:21;;;;;;;3.00;1.73;;;;;;;5.73;82.43;100499.56;5031446;28;20278;-70
2023/11/13 00:38:49;;;;;;;3.87;1.97;;;;;;;5.75;80.90;100501.91;5015226;28;20286;-70
2023/11/13 00:41:15;;;;;;;2.30;2.03;;;;;;;5.75;81.54;100505.28;5012637;28;20424;-70
2023/11/13 00:43:43;;;;;;;4.83;1.97;;;;;;;5.77;80.97;100505.00;5031623;28;20226;-69
2023/11/13 00:46:09;;;;;;;3.83;2.20;;;;;;;5.77;80.81;100500.53;5031269;28;20211;-68
2023/11/13 00:48:37;;;;;;;2.97;1.90;;;;;;;5.78;81.43;100502.06;5012927;28;20202;-69
2023/11/13 00:51:05;;;;;;;1.70;1.60;;;;;;;5.78;80.94;100502.06;5013797;28;20229;-69
2023/11/13 00:53:36;;;;;;;2.47;1.70;;;;;;;5.78;81.13;100499.47;5009506;28;20243;-69
2023/11/13 00:56:05;;;;;;;2.17;1.80;;;;;;;5.78;81.78;100501.28;5029934;28;20211;-70
2023/11/13 00:58:32;;;;;;;5.07;1.53;;;;;;;5.78;80.89;100509.94;5027521;28;20211;-70
2023/11/13 01:00:59;;;;;;;3.83;2.10;;;;;;;5.78;81.45;100503.91;5027835;28;20234;-69
2023/11/13 01:03:25;;;;;;;2.27;2.07;;;;;;;5.78;82.04;100501.28;5017684;28;20231;-69
2023/11/13 01:05:51;;;;;;;3.47;1.80;;;;;;;5.78;81.44;100507.31;5031132;28;20569;-69
2023/11/13 01:08:18;;;;;;;1.87;1.67;;;;;;;5.78;81.37;100496.84;5026487;28;20207;-70
2023/11/13 01:10:45;;;;;;;4.77;2.03;;;;;;;5.79;80.38;100495.75;5014065;28;20233;-70
2023/11/13 01:13:12;;;;;;;2.60;2.00;;;;;;;5.79;81.28;100493.13;5015812;28;20239;-70
2023/11/13 01:15:39;;;;;;;5.73;1.73;;;;;;;5.81;81.52;100490.25;5014385;28;20210;-69
2023/11/13 01:18:06;;;;;;;3.47;2.10;;;;;;;5.81;81.94;100491.03;5009681;28;20290;-70
2023/11/13 01:20:33;;;;;;;6.33;2.30;;;;;;;5.83;83.50;100488.91;5011568;28;20223;-69
2023/11/13 01:22:59;;;;;;;2.63;1.93;;;;;;;5.83;80.78;100488.91;5016218;28;20713;-70
2023/11/13 01:25:26;;;;;;;2.43;2.23;;;;;;;5.85;82.03;100481.50;5029949;28;20200;-70
2023/11/13 01:27:52;;;;;;;4.37;1.90;;;;;;;5.86;81.65;100472.56;5032539;28;20209;-70
2023/11/13 01:30:20;;;;;;;3.63;2.10;;;;;;;5.88;80.73;100465.19;5014685;28;20217;-70
2023/11/13 01:32:47;;;;;;;3.33;2.10;;;;;;;5.89;81.42;100464.13;5029297;28;20495;-69
2023/11/13 01:35:14;;;;;;;1.90;1.70;;;;;;;5.89;81.14;100456.25;5011416;28;20310;-69
2023/11/13 01:37:41;;;;;;;2.83;2.10;;;;;;;5.92;81.52;100454.91;5028524;28;20215;-70
2023/11/13 01:40:10;;;;;;;3.63;2.20;;;;;;;5.91;81.47;100456.72;5013870;28;20609;-69
2023/11/13 01:42:36;;;;;;;3.60;2.00;;;;;;;5.92;83.04;100454.91;5005681;28;20227;-70
2023/11/13 01:45:03;;;;;;;2.83;2.43;;;;;;;5.91;81.51;100463.84;5016057;28;20227;-70
2023/11/13 01:47:31;;;;;;;3.00;2.27;;;;;;;5.91;81.71;100459.34;5018608;28;20227;-69
2023/11/13 01:49:58;;;;;;;4.00;2.57;;;;;;;5.90;81.57;100460.44;5015255;28;20235;-70
2023/11/13 01:52:26;;;;;;;4.70;2.70;;;;;;;5.89;82.50;100466.75;5015621;28;20212;-69
2023/11/13 01:54:52;;;;;;;3.63;2.30;;;;;;;5.92;82.56;100468.78;5031366;28;20231;-70
2023/11/13 01:57:19;;;;;;;2.50;2.00;;;;;;;5.91;82.09;100464.59;5030163;28;20219;-69
2023/11/13 01:59:46;;;;;;;3.13;2.03;;;;;;;5.89;80.77;100471.19;5014186;28;20203;-69
2023/11/13 02:02:12;;;;;;;2.67;2.40;;;;;;;5.89;81.22;100471.19;5008840;28;20211;-70
2023/11/13 02:04:40;;;;;;;3.20;2.50;;;;;;;5.86;81.25;100472.56;5029560;28;20589;-69
2023/11/13 02:07:06;;;;;;;2.50;2.20;;;;;;;5.85;82.48;100465.03;5013291;28;20203;-70
2023/11/13 02:09:34;;;;;;;3.43;2.40;;;;;;;5.83;80.98;100464.53;5013139;28;20214;-69
2023/11/13 02:12:00;;;;;;;2.73;1.90;;;;;;;5.80;81.49;100457.28;5013931;28;20298;-68
2023/11/13 02:14:29;;;;;;;2.87;1.93;;;;;;;5.79;81.07;100466.16;5033175;28;20223;-69
2023/11/13 02:17:03;;;;;;;3.57;2.00;;;;;;;5.74;81.50;100459.19;5013764;28;20211;-69
2023/11/13 02:19:30;;;;;;;4.13;2.50;;;;;;;5.71;81.70;100459.00;5013780;28;20314;-69
2023/11/13 02:21:59;;;;;;;3.63;2.30;;;;;;;5.67;82.18;100445.75;5034309;28;20214;-69
2023/11/13 02:24:27;;;;;;;1.93;1.70;;;;;;;5.64;81.92;100448.19;5018384;28;20697;-69
2023/11/13 02:26:53;;;;;;;2.53;2.13;;;;;;;5.59;82.25;100448.28;5018745;28;21226;-70
2023/11/13 02:29:20;;;;;;;2.33;1.63;;;;;;;5.55;82.27;100455.94;5017125;28;20203;-69
2023/11/13 02:31:51;;;;;;;2.20;1.90;;;;;;;5.51;82.95;100455.00;5030604;28;20720;-70
2023/11/13 02:34:17;;;;;;;4.03;2.40;;;;;;;5.47;83.16;100453.25;5030082;28;20240;-69
2023/11/13 02:36:44;;;;;;;5.07;2.10;;;;;;;5.43;83.45;100445.22;5014364;28;20582;-70
2023/11/13 02:39:11;;;;;;;2.87;2.27;;;;;;;5.39;83.80;100444.25;5015130;28;20213;-69
2023/11/13 02:41:38;;;;;;;2.90;1.80;;;;;;;5.36;83.40;100449.28;5011698;28;20211;-69
2023/11/13 02:44:05;;;;;;;3.17;2.20;;;;;;;5.29;83.73;100449.69;5030659;28;20235;-70
2023/11/13 02:46:31;;;;;;;6.50;2.60;;;;;;;5.26;84.20;100452.13;5012577;28;20213;-69
2023/11/13 02:48:58;;;;;;;3.57;2.00;;;;;;;5.21;84.26;100463.47;5013825;28;20209;-69
2023/11/13 02:51:24;;;;;;;6.07;2.07;;;;;;;5.17;84.26;100472.97;5017027;28;20218;-69
2023/11/13 02:53:52;;;;;;;2.37;2.17;;;;;;;5.14;84.76;100470.16;5032753;28;20233;-69
2023/11/13 02:56:19;;;;;;;3.00;2.43;;;;;;;5.11;84.98;100471.53;5012871;28;20306;-69
2023/11/13 02:58:46;;;;;;;2.90;2.40;;;;;;;5.08;84.91;100482.56;5014522;28;20222;-70
2023/11/13 03:01:14;;;;;;;3.47;2.20;;;;;;;5.09;84.87;100488.59;5031519;28;20213;-70
2023/11/13 03:03:41;;;;;;;4.23;2.30;;;;;;;5.07;85.26;100485.50;5037117;28;20223;-68
2023/11/13 03:06:07;;;;;;;2.73;2.40;;;;;;;5.06;84.78;100478.69;5033537;28;20210;-70
2023/11/13 03:08:33;;;;;;;4.13;2.23;;;;;;;5.05;85.38;100471.91;5016334;28;21090;-70
2023/11/13 03:11:00;;;;;;;3.53;2.47;;;;;;;5.05;85.80;100477.13;5033375;28;20215;-69
2023/11/13 03:13:26;;;;;;;2.60;2.13;;;;;;;5.05;85.59;100479.75;5016338;28;20260;-70
2023/11/13 03:15:54;;;;;;;3.70;2.07;;;;;;;5.05;85.85;100477.94;5034012;28;20388;-70
2023/11/13 03:18:20;;;;;;;2.93;2.30;;;;;;;5.05;86.09;100470.06;5033752;28;20301;-71
2023/11/13 03:20:47;;;;;;;2.83;2.30;;;;;;;5.06;85.89;100469.00;5031838;28;20669;-71
2023/11/13 03:23:14;;;;;;;5.13;2.60;;;;;;;5.07;86.87;100473.16;5013692;28;20247;-69
2023/11/13 03:25:40;;;;;;;2.57;2.17;;;;;;;5.09;86.15;100473.66;5016121;28;20238;-70
2023/11/13 03:28:07;;;;;;;5.03;2.70;;;;;;;5.09;86.43;100473.66;5016406;28;20208;-71
2023/11/13 03:30:36;;;;;;;2.97;2.40;;;;;;;5.10;86.38;100474.44;5034706;28;20222;-70
2023/11/13 03:33:03;;;;;;;3.50;2.57;;;;;;;5.10;86.51;100471.81;5032134;28;20709;-70
2023/11/13 03:35:30;;;;;;;4.57;2.80;;;;;;;5.10;86.51;100477.84;5028982;28;20216;-71
2023/11/13 03:37:56;;;;;;;5.60;2.50;;;;;;;5.10;85.97;100479.66;5031938;28;20715;-69
2023/11/13 03:40:24;;;;;;;7.33;3.10;;;;;;;5.09;86.21;100484.13;5015769;28;20222;-70
2023/11/13 03:42:50;;;;;;;6.00;2.87;;;;;;;5.09;86.58;100485.97;5009484;28;20220;-70
2023/11/13 03:45:17;;;;;;;4.10;2.93;;;;;;;5.08;86.88;100487.78;5012207;28;20232;-70
2023/11/13 03:47:44;;;;;;;6.17;2.83;;;;;;;5.08;86.98;100484.41;5029815;28;20210;-69
2023/11/13 03:50:11;;;;;;;4.37;2.97;;;;;;;5.06;86.98;100482.09;5014381;28;20198;-71
2023/11/13 03:52:38;;;;;;;4.13;3.00;;;;;;;5.06;86.91;100489.94;5032743;28;20196;-70
2023/11/13 03:55:05;;;;;;;4.97;3.13;;;;;;;5.05;87.21;100480.53;5018223;28;20229;-70
2023/11/13 03:57:32;;;;;;;3.60;2.90;;;;;;;5.06;87.36;100483.91;5028835;28;20360;-71
2023/11/13 03:59:58;;;;;;;4.23;2.80;;;;;;;5.06;87.53;100486.53;5028928;28;20203;-69
2023/11/13 04:02:24;;;;;;;4.30;2.70;;;;;;;5.05;87.52;100485.78;5035433;28;20639;-70
2023/11/13 04:04:51;;;;;;;4.60;2.93;;;;;;;5.04;87.63;100473.75;5031544;28;20227;-71
2023/11/13 04:07:21;;;;;;;3.17;2.40;;;;;;;5.01;87.34;100474.34;5030155;28;20757;-70
2023/11/13 04:09:48;;;;;;;4.10;2.50;;;;;;;4.99;87.36;100475.69;5016331;28;20307;-71
2023/11/13 04:12:14;;;;;;;2.90;2.60;;;;;;;4.94;87.05;100478.41;5011789;28;20753;-69
2023/11/13 04:14:40;;;;;;;3.80;2.70;;;;;;;4.89;87.39;100487.13;5030343;28;20696;-71
2023/11/13 04:17:08;;;;;;;2.83;2.37;;;;;;;4.84;86.76;100483.81;5029296;28;20240;-70
2023/11/13 04:19:34;;;;;;;3.10;2.33;;;;;;;4.77;87.41;100486.06;5014182;28;20211;-69
2023/11/13 04:22:00;;;;;;;4.77;2.60;;;;;;;4.67;87.19;100481.75;5014149;28;20264;-70
2023/11/13 04:24:28;;;;;;;2.87;2.17;;;;;;;4.60;86.94;100480.56;5033987;28;20246;-70
2023/11/13 04:26:54;;;;;;;4.77;2.43;;;;;;;4.51;87.19;100479.72;5027769;28;20203;-70
2023/11/13 04:29:21;;;;;;;5.47;2.73;;;;;;;4.41;87.17;100482.50;5027419;28;20856;-70
2023/11/13 04:31:48;;;;;;;4.87;2.80;;;;;;;4.31;87.86;100477.44;5031690;28;20296;-71
2023/11/13 04:34:14;;;;;;;7.40;3.20;;;;;;;4.21;88.13;100483.59;5031590;28;20574;-70
2023/11/13 04:36:41;;;;;;;5.40;3.20;;;;;;;4.11;88.42;100481.13;5032122;28;20226;-71
2023/11/13 04:39:09;;;;;;;4.70;2.70;;;;;;;4.02;88.82;100475.00;5034253;28;20210;-70
2023/11/13 04:41:38;;;;;;;4.07;2.90;;;;;;;3.94;89.26;100474.88;5030679;28;20584;-70
2023/11/13 04:44:04;;;;;;;4.57;3.20;;;;;;;3.87;90.17;100466.59;5030754;28;20259;-71
2023/11/13 04:46:31;;;;;;;3.63;3.00;;;;;;;3.79;90.72;100460.19;5032329;28;21010;-69
2023/11/13 04:48:58;;;;;;;7.70;2.90;;;;;;;3.73;91.09;100465.78;5030287;28;20294;-70
2023/11/13 04:51:24;;;;;;;4.63;3.03;;;;;;;3.64;90.97;100473.44;5030708;28;20239;-70
2023/11/13 04:53:50;;;;;;;5.73;3.10;;;;;;;3.57;91.35;100473.03;5032421;28;20233;-71
2023/11/13 04:56:17;;;;;;;6.53;3.43;;;;;;;3.49;92.14;100470.28;5029006;28;20234;-71
2023/11/13 04:58:44;;;;;;;5.07;3.00;;;;;;;3.41;92.17;100476.09;5028124;28;20204;-70
2023/11/13 05:01:11;;;;;;;5.40;3.40;;;;;;;3.31;92.10;100474.41;5031562;28;20231;-69
2023/11/13 05:03:37;;;;;;;7.97;3.80;;;;;;;3.24;92.39;100473.97;5024539;28;20234;-71
2023/11/13 05:06:04;;;;;;;7.37;3.83;;;;;;;3.17;92.67;100475.38;5031000;28;20226;-70
2023/11/13 05:08:30;;;;;;;6.03;3.53;;;;;;;3.06;92.43;100464.25;5031711;28;20556;-69
2023/11/13 05:10:57;;;;;;;4.47;3.30;;;;;;;2.97;92.63;100468.56;5035199;28;20681;-69
2023/11/13 05:13:23;;;;;;;5.30;3.33;;;;;;;2.89;92.46;100476.97;5034502;28;20552;-70
2023/11/13 05:15:51;;;;;;;5.53;3.87;;;;;;;2.84;92.65;100477.03;5013136;28;20605;-70
2023/11/13 05:18:18;;;;;;;6.63;3.50;;;;;;;2.77;93.06;100479.19;5031737;28;20211;-71
2023/11/13 05:20:45;;;;;;;5.60;4.33;;;;;;;2.70;93.35;100483.94;5029897;28;20216;-70
2023/11/13 05:23:12;;;;;;;6.00;3.83;;;;;;;2.62;93.47;100494.19;5027394;28;20497;-70
2023/11/13 05:25:39;;;;;;;4.63;3.53;;;;;;;2.55;93.10;100488.53;5026577;28;20605;-70
2023/11/13 05:28:06;;;;;;;5.33;3.50;;;;;;;2.50;93.53;100496.41;4999617;28;20236;-69
2023/11/13 05:30:33;;;;;;;4.97;3.13;;;;;;;2.46;94.37;100496.16;5080372;22;20232;-70
2023/11/13 05:33:02;;;;;;;6.80;3.67;;;;;;;2.38;94.14;100503.81;5031765;28;20211;-71
2023/11/13 05:35:28;;;;;;;5.70;3.73;;;;;;;2.33;94.11;100502.00;5030257;28;20223;-70
2023/11/13 05:37:54;;;;;;;4.90;3.43;;;;;;;2.27;94.44;100494.50;5028659;28;20208;-71
2023/11/13 05:40:21;;;;;;;4.40;3.20;;;;;;;2.24;94.93;100503.63;5032969;28;20242;-71
2023/11/13 05:42:48;;;;;;;6.20;3.60;;;;;;;2.18;94.74;100496.91;5027451;28;20291;-71
2023/11/13 05:45:15;;;;;;;4.70;3.33;;;;;;;2.15;94.92;100496.66;5031041;28;20226;-72
2023/11/13 05:47:42;;;;;;;8.97;3.80;;;;;;;2.13;95.67;100485.75;5027562;28;20607;-71
2023/11/13 05:50:10;;;;;;;3.93;3.50;;;;;;;2.13;95.90;100485.75;5032233;28;20231;-71
2023/11/13 05:52:37;;;;;;;6.00;3.53;;;;;;;2.03;95.82;100476.16;5027922;28;20216;-70
2023/11/13 05:55:04;;;;;;;4.30;3.53;;;;;;;1.99;95.85;100482.19;5030170;28;20625;-72
2023/11/13 05:57:30;;;;;;;5.03;3.33;;;;;;;1.92;96.11;100490.31;5028057;28;20219;-72
2023/11/13 05:59:57;;;;;;;11.17;3.77;;;;;;;1.94;96.37;100490.06;5026468;28;20609;-69
2023/11/13 06:02:23;;;;;;;4.27;2.87;;;;;;;1.87;96.86;100471.34;5031454;28;20290;-71
2023/11/13 06:04:50;;;;;;;6.53;3.47;;;;;;;1.87;97.15;100479.16;5033445;28;20266;-70
2023/11/13 06:07:17;;;;;;;5.53;3.70;;;;;;;1.87;97.35;100482.53;5037061;28;20301;-71
2023/11/13 06:09:44;;;;;;;4.67;3.40;;;;;;;1.85;97.62;100487.25;5036188;28;20238;-70
2023/11/13 06:12:10;;;;;;;6.73;3.70;;;;;;;1.84;97.81;100487.50;5037683;28;20261;-71
2023/11/13 06:14:38;;;;;;;6.00;4.00;;;;;;;1.85;98.44;100483.84;5038334;28;20203;-69
2023/11/13 06:17:05;;;;;;;4.27;3.47;;;;;;;1.81;98.71;100491.44;5038691;28;20214;-70
2023/11/13 06:19:31;;;;;;;6.50;3.80;;;;;;;1.77;99.71;100493.00;5036573;28;20657;-70
2023/11/13 06:21:57;;;;;;;7.90;4.10;;;;;;;1.78;99.69;100496.41;5040133;28;20538;-71
2023/11/13 06:24:25;;;;;;;4.55;3.45;;;;;;;1.71;100.00;100509.69;5040050;28;20245;-71
2023/11/13 06:26:51;;;;;;;6.30;4.00;;;;;;;1.68;100.00;100501.66;5039580;28;20581;-71
2023/11/13 06:29:18;;;;;;;5.27;4.10;;;;;;;1.70;100.00;100515.16;5037009;28;20299;-71
2023/11/13 06:31:45;;;;;;;7.47;3.93;;;;;;;1.67;100.00;100516.47;5037719;28;20684;-71
2023/11/13 06:34:12;;;;;;;6.80;4.17;;;;;;;1.69;100.00;100521.44;5034915;28;20249;-70
2023/11/13 06:36:42;;;;;;;10.13;4.83;;;;;;;1.65;100.00;100517.78;5035667;28;20245;-71
2023/11/13 06:39:09;;;;;;;5.07;3.77;;;;;;;1.60;100.00;100530.84;5022459;28;20216;-70
2023/11/13 06:41:36;;;;;;;6.00;3.97;;;;;;;1.57;100.00;100534.75;5039532;28;20253;-69
2023/11/13 06:44:07;;;;;;;7.47;4.03;;;;;;;1.54;100.00;100534.50;5038962;28;20281;-71
2023/11/13 06:46:34;;;;;;;4.77;3.67;;;;;;;1.52;100.00;100529.56;5042183;28;20444;-71
2023/11/13 06:49:00;;;;;;;7.00;4.17;;;;;;;1.54;100.00;100529.31;5032537;28;20209;-69
2023/11/13 06:51:26;;;;;;;4.97;3.97;;;;;;;1.55;100.00;100529.03;5032853;28;20227;-72
2023/11/13 06:53:54;;;;;;;5.47;3.87;;;;;;;1.59;100.00;100539.69;5035219;28;20203;-71
2023/11/13 06:56:21;;;;;;;6.37;4.50;;;;;;;1.60;100.00;100529.03;5016281;28;20211;-70
2023/11/13 06:58:49;;;;;;;8.07;5.30;;;;;;;1.69;100.00;100531.84;5036284;28;20715;-71
2023/11/13 07:01:15;;;;;;;7.40;4.77;;;;;;;1.73;100.00;100531.06;5041142;28;20249;-71
2023/11/13 07:03:43;;;;;;;6.07;4.63;;;;;;;1.77;100.00;100518.28;5032163;28;20292;-71
2023/11/13 07:06:11;;;;;;;7.87;4.87;;;;;;;1.82;100.00;100528.66;5039671;28;20237;-71
2023/11/13 07:08:37;;;;;;;8.77;5.30;;;;;;;1.86;100.00;100524.44;5034550;28;20210;-70
2023/11/13 07:11:04;;;;;;;9.33;6.03;;;;;;;1.86;100.00;100519.25;5039617;28;20246;-71
2023/11/13 07:13:32;;;;;;;12.83;4.87;;;;;;;1.93;100.00;100525.72;5037628;28;20262;-71
2023/11/13 07:15:59;;;;;;;9.30;4.90;;;;;;;1.98;100.00;100512.66;5038712;28;20752;-70
2023/11/13 07:18:26;;;;;;;10.77;5.77;;;;;;;2.04;100.00;100513.41;5040238;28;20434;-70
2023/11/13 07:20:52;;;;;;;7.07;5.23;;;;;;;2.04;100.00;100510.81;5020893;28;20227;-70
2023/11/13 07:23:19;;;;;;;8.60;6.33;;;;;;;2.14;100.00;100495.13;5034338;28;20215;-71
2023/11/13 07:25:46;;;;;;;8.50;5.93;;;;;;;2.18;100.00;100499.50;5034712;28;20579;-72
2023/11/13 07:28:15;;;;;;;10.50;6.17;;;;;;;2.23;100.00;100498.72;5038386;28;20688;-71
2023/11/13 07:30:41;;;;;;;9.07;6.83;;;;;;;2.33;100.00;100498.63;5037351;28;20764;-70
2023/11/13 07:33:09;;;;;;;9.30;6.53;;;;;;;2.43;100.00;100493.31;5035191;28;20199;-70
2023/11/13 07:35:37;;;;;;;11.93;6.30;;;;;;;2.51;100.00;100501.34;5036854;28;20206;-70
2023/11/13 07:38:07;;;;;;;14.63;6.97;;;;;;;2.60;100.00;100499.69;5036081;28;20208;-70
2023/11/13 07:40:33;;;;;;;16.00;7.83;;;;;;;2.72;100.00;100499.31;5033979;28;20595;-70
2023/11/13 07:43:00;;;;;;;17.67;7.93;;;;;;;2.80;100.00;100490.91;5032855;28;20332;-70
2023/11/13 07:45:26;;;;;;;21.93;7.40;;;;;;;2.91;100.00;100494.97;5033032;28;20212;-69
2023/11/13 07:47:56;;;;;;;11.93;7.40;;;;;;;3.00;100.00;100488.84;5036927;28;20206;-70
2023/11/13 07:50:27;;;;;;;17.63;9.53;;;;;;;3.11;100.00;100497.34;5035083;28;20574;-70
2023/11/13 07:52:53;;;;;;;16.03;8.37;;;;;;;3.21;100.00;100500.63;5032972;28;20665;-68
2023/11/13 07:55:20;;;;;;;14.47;8.87;;;;;;;3.29;100.00;100496.63;5040654;28;20203;-70
2023/11/13 07:57:47;;;;;;;12.90;8.60;;;;;;;3.37;100.00;100496.78;5017235;28;20717;-70
2023/11/13 08:00:15;;;;;;;18.77;9.93;;;;;;;3.46;100.00;100505.53;5036378;28;20887;-70
2023/11/13 08:02:42;;;;;;;18.57;10.10;;;;;;;3.52;100.00;100504.41;5035329;28;20207;-68
2023/11/13 08:05:10;;;;;;;16.60;9.17;;;;;;;3.59;100.00;100506.69;5033851;28;20639;-71
2023/11/13 08:07:39;;;;;;;18.63;8.17;;;;;;;3.63;100.00;100508.44;5033740;28;20211;-70
2023/11/13 08:10:12;;;;;;;15.00;8.10;;;;;;;3.67;100.00;100511.28;5035423;28;20229;-70
2023/11/13 08:12:39;;;;;;;15.30;8.30;;;;;;;3.72;100.00;100501.53;5035657;28;20691;-70
2023/11/13 08:15:07;;;;;;;16.67;8.57;;;;;;;3.76;100.00;100493.91;5032829;28;20203;-69
2023/11/13 08:17:34;;;;;;;12.83;8.83;;;;;;;3.79;100.00;100490.75;5030364;28;20597;-71
2023/11/13 08:20:01;;;;;;;14.00;8.80;;;;;;;3.83;100.00;100494.38;5034123;28;20232;-69
2023/11/13 08:22:27;;;;;;;15.50;9.13;;;;;;;3.87;100.00;100497.94;5037294;28;20216;-70
2023/11/13 08:24:54;;;;;;;13.73;8.57;;;;;;;3.93;100.00;100494.97;5036497;28;20211;-70
2023/11/13 08:27:21;;;;;;;15.93;9.70;;;;;;;3.97;100.00;100487.34;5035804;28;20226;-70
2023/11/13 08:29:49;;;;;;;14.90;9.40;;;;;;;4.02;100.00;100484.66;5033381;28;20223;-71
2023/11/13 08:32:17;;;;;;;17.60;9.30;;;;;;;4.07;100.00;100493.22;5034314;28;20261;-70
2023/11/13 08:34:44;;;;;;;19.00;9.90;;;;;;;4.13;100.00;100494.69;5023903;28;20215;-70
2023/11/13 08:37:11;;;;;;;21.10;9.83;;;;;;;4.19;100.00;100492.78;5036988;28;20679;-69
2023/11/13 08:39:38;;;;;;;16.63;9.80;;;;;;;4.23;100.00;100491.91;5036629;28;20274;-70
2023/11/13 08:42:06;;;;;;;28.57;8.53;;;;;;;4.27;100.00;100503.38;5033443;28;20245;-70
2023/11/13 08:44:33;;;;;;;15.87;9.27;;;;;;;4.30;100.00;100499.41;5036073;28;20649;-69
2023/11/13 08:46:59;;;;;;;24.37;10.10;;;;;;;4.35;100.00;100501.94;5021886;28;20223;-69
2023/11/13 08:49:26;;;;;;;15.70;9.37;;;;;;;4.38;99.39;100502.13;5036838;28;20688;-70
2023/11/13 08:51:52;;;;;;;15.43;9.20;;;;;;;4.43;99.41;100502.06;5035825;28;20207;-70
2023/11/13 08:54:19;;;;;;;18.17;9.30;;;;;;;4.49;99.38;100492.28;5032324;28;20208;-70
2023/11/13 08:56:51;;;;;;;19.47;10.17;;;;;;;4.56;99.22;100496.06;5032936;28;20262;-69
2023/11/13 08:59:19;;;;;;;20.03;10.90;;;;;;;4.64;99.31;100478.94;5036887;28;20292;-70
2023/11/13 09:01:45;;;;;;;23.33;10.93;;;;;;;4.73;99.01;100485.06;5022133;28;20203;-68
2023/11/13 09:04:13;;;;;;;20.50;10.83;;;;;;;4.83;98.84;100492.72;5036676;28;20312;-71
2023/11/13 09:06:39;;;;;;;18.87;10.90;;;;;;;4.95;98.68;100483.34;5033283;28;20737;-69
2023/11/13 09:09:11;;;;;;;19.30;10.73;;;;;;;5.06;98.97;100487.31;5035533;28;21897;-70
2023/11/13 09:11:40;;;;;;;22.73;11.17;;;;;;;5.17;98.42;100474.81;5034600;28;20244;-70
2023/11/13 09:14:09;;;;;;;24.50;12.33;;;;;;;5.25;97.42;100479.38;5034141;28;21861;-70
2023/11/13 09:16:37;;;;;;;22.77;11.30;;;;;;;5.36;96.61;100483.31;5037652;28;20199;-70
2023/11/13 09:19:04;;;;;;;23.23;11.57;;;;;;;5.45;95.37;100478.97;5032753;28;20210;-71
2023/11/13 09:21:30;;;;;;;32.73;10.50;;;;;;;5.51;94.99;100483.03;5037462;28;20215;-71
2023/11/13 09:23:57;;;;;;;22.63;10.73;;;;;;;5.56;95.42;100482.91;5037547;28;20281;-69
2023/11/13 09:26:23;;;;;;;23.30;11.07;;;;;;;5.62;95.25;100482.53;5040010;28;20339;-70
2023/11/13 09:28:49;;;;;;;19.80;10.80;;;;;;;5.66;94.67;100480.88;5020279;28;20215;-69
2023/11/13 09:31:16;;;;;;;15.73;9.80;;;;;;;5.72;94.58;100482.31;5040159;28;20230;-70
2023/11/13 09:33:45;;;;;;;20.17;10.57;;;;;;;5.81;93.89;100470.06;5039599;28;20567;-70
2023/11/13 09:36:12;;;;;;;18.37;10.57;;;;;;;5.90;94.48;100464.91;5036426;28;20191;-68
2023/11/13 09:38:39;;;;;;;22.33;11.77;;;;;;;6.02;94.32;100468.53;5019841;28;20268;-70
2023/11/13 09:41:05;;;;;;;19.40;11.00;;;;;;;6.12;94.08;100452.56;5035260;28;20223;-70
2023/11/13 09:43:35;;;;;;;20.27;10.80;;;;;;;6.25;93.58;100456.97;5038057;28;20715;-70
2023/11/13 09:46:04;;;;;;;19.87;11.00;;;;;;;6.39;92.54;100462.94;5019366;28;20586;-70
2023/11/13 09:48:31;;;;;;;16.13;9.37;;;;;;;6.54;92.11;100467.81;5039670;28;20203;-69
2023/11/13 09:50:59;;;;;;;14.63;9.17;;;;;;;6.70;92.13;100457.69;5034181;28;20406;-70
2023/11/13 09:53:26;;;;;;;15.67;8.90;;;;;;;6.86;90.51;100456.97;5037011;28;20207;-69
2023/11/13 09:55:53;;;;;;;9.80;6.97;;;;;;;6.99;89.55;100455.34;5033983;28;20195;-70
2023/11/13 09:58:21;;;;;;;11.90;7.00;;;;;;;7.07;89.87;100454.56;5036953;28;20277;-70
2023/11/13 10:00:48;;;;;;;10.17;7.50;;;;;;;7.15;88.08;100457.22;5033898;28;20812;-69
2023/11/13 10:03:15;;;;;;;8.77;6.67;;;;;;;7.23;87.70;100453.06;5041135;28;20282;-70
2023/11/13 10:05:42;;;;;;;10.53;6.27;;;;;;;7.27;88.28;100454.78;5036470;28;20855;-70
2023/11/13 10:08:09;;;;;;;6.80;5.57;;;;;;;7.35;88.20;100454.00;5037739;28;20700;-70
2023/11/13 10:10:39;;;;;;;8.50;5.77;;;;;;;7.38;87.98;100445.53;5035980;28;20830;-70
2023/11/13 10:13:10;;;;;;;6.40;4.93;;;;;;;7.41;85.93;100437.03;5035796;28;20203;-70
2023/11/13 10:15:37;;;;;;;6.33;5.33;;;;;;;7.45;87.98;100424.06;5037153;28;20410;-71
2023/11/13 10:18:05;;;;;;;7.10;5.10;;;;;;;7.46;86.51;100423.00;5032438;28;20303;-70
2023/11/13 10:20:31;;;;;;;8.73;4.87;;;;;;;7.48;85.65;100420.81;5037103;28;20223;-70
2023/11/13 10:22:58;;;;;;;6.00;4.37;;;;;;;7.50;86.23;100423.94;5035324;28;20199;-70
2023/11/13 10:25:27;;;;;;;5.77;4.63;;;;;;;7.51;85.84;100418.34;5037970;28;20242;-70
2023/11/13 10:27:59;;;;;;;8.53;4.47;;;;;;;7.54;86.25;100411.69;5032394;28;20224;-70
2023/11/13 10:30:27;;;;;;;6.03;4.43;;;;;;;7.56;85.94;100410.31;5033372;28;20340;-70
2023/11/13 10:32:54;;;;;;;6.13;4.50;;;;;;;7.59;84.55;100401.03;5037260;28;20227;-70
2023/11/13 10:35:35;;;;;;;6.27;4.33;;;;;;;7.60;83.63;100400.72;5037189;28;20230;-70
2023/11/13 10:38:03;;;;;;;6.13;4.73;;;;;;;7.63;83.69;100401.97;5034117;28;20210;-70
2023/11/13 10:40:31;;;;;;;7.43;5.80;;;;;;;7.65;83.90;100411.09;5035829;28;20314;-70
2023/11/13 10:42:58;;;;;;;8.50;4.73;;;;;;;7.70;84.66;100410.16;5034518;28;20657;-70
2023/11/13 10:45:24;;;;;;;5.83;4.40;;;;;;;7.73;83.40;100399.03;5036187;28;20213;-70
2023/11/13 10:47:51;;;;;;;8.93;5.10;;;;;;;7.78;83.68;100402.28;5036337;28;20302;-70
2023/11/13 10:50:19;;;;;;;6.77;4.63;;;;;;;7.81;82.86;100391.13;5035072;28;20728;-69
2023/11/13 10:52:46;;;;;;;6.27;4.20;;;;;;;7.83;83.26;100378.44;5036564;28;20223;-71
2023/11/13 10:55:15;;;;;;;6.60;4.73;;;;;;;7.85;84.09;100378.91;5037178;28;20260;-70
2023/11/13 10:57:43;;;;;;;5.63;4.10;;;;;;;7.89;81.23;100365.91;5033851;28;20200;-69
2023/11/13 11:00:12;;;;;;;9.40;4.80;;;;;;;7.93;81.89;100361.59;5033343;28;20233;-70
2023/11/13 11:02:44;;;;;;;8.13;4.67;;;;;;;7.97;83.07;100359.88;5038618;28;20270;-71
2023/11/13 11:05:20;;;;;;;8.27;4.50;;;;;;;8.02;81.67;100354.47;5023831;28;20203;-70
2023/11/13 11:07:50;;;;;;;5.90;3.57;;;;;;;8.08;83.08;100338.19;5034432;28;20226;-70
2023/11/13 11:10:17;;;;;;;7.30;4.00;;;;;;;8.13;82.63;100338.00;5033539;28;20223;-70
2023/11/13 11:12:49;;;;;;;4.10;3.53;;;;;;;8.21;81.30;100342.50;5041129;28;20277;-68
2023/11/13 11:15:34;;;;;;;6.43;3.27;;;;;;;8.28;78.99;100344.66;5032816;28;21133;-69
2023/11/13 11:18:11;;;;;;;4.57;2.70;;;;;;;8.34;81.07;100343.41;5033348;28;20210;-68
2023/11/13 11:21:00;;;;;;;5.27;3.13;;;;;;;8.37;82.73;100330.38;5035183;28;20232;-70
2023/11/13 11:23:32;;;;;;;3.93;2.97;;;;;;;8.41;78.91;100322.63;5036673;28;20213;-70
2023/11/13 11:26:00;;;;;;;3.93;2.83;;;;;;;8.43;78.34;100320.47;5017433;28;20215;-70
2023/11/13 11:28:44;;;;;;;5.93;3.30;;;;;;;8.47;80.42;100319.50;5035178;28;20685;-70
2023/11/13 11:31:45;;;;;;;4.80;2.97;;;;;;;8.50;81.57;100320.72;5036061;28;20405;-70